Time;durP1;ratioP1;P1;durP2;ratioP2;P2;SDS_P1;SDS_P2;PMS_P1;PMS_P2;Temp;Humidity;BMP_temperature;BMP_pressure;BME280_temperature;BME280_humidity;BME280_pressure;Samples;Min_cycle;Max_cycle;Signal;HPM_P1;HPM_P2
2022/12/05 00:00:10;;;;;;;25.73;12.20;;;6.00;99.90;;;;;;5024999;28;20476;-60
2022/12/05 00:02:38;;;;;;;26.90;11.30;;;6.00;99.90;;;;;;5014200;28;20484;-60
2022/12/05 00:05:05;;;;;;;19.20;10.80;;;6.00;99.90;;;;;;5021423;28;20476;-60
2022/12/05 00:07:32;;;;;;;22.60;11.57;;;6.00;99.90;;;;;;5010682;28;20481;-61
2022/12/05 00:09:58;;;;;;;23.50;9.90;;;7.90;99.90;;;;;;5023073;28;20481;-61
2022/12/05 00:12:25;;;;;;;26.77;12.90;;;6.10;99.90;;;;;;5021375;28;20522;-60
2022/12/05 00:14:52;;;;;;;33.50;14.17;;;6.00;99.90;;;;;;5011246;28;20481;-60
2022/12/05 00:17:18;;;;;;;31.83;14.00;;;6.10;99.90;;;;;;5010980;28;20863;-60
2022/12/05 00:19:47;;;;;;;20.80;9.50;;;6.10;99.90;;;;;;5015023;28;20481;-61
2022/12/05 00:22:13;;;;;;;29.80;14.93;;;6.10;99.90;;;;;;5017218;28;20492;-60
2022/12/05 00:24:40;;;;;;;17.90;9.80;;;6.10;99.90;;;;;;5012813;28;20827;-60
2022/12/05 00:27:07;;;;;;;26.33;14.23;;;6.20;99.90;;;;;;5011068;28;20482;-60
2022/12/05 00:29:34;;;;;;;19.87;11.40;;;6.20;99.90;;;;;;5018246;28;20823;-60
2022/12/05 00:32:00;;;;;;;22.57;10.10;;;6.20;99.90;;;;;;5033173;28;20739;-60
2022/12/05 00:34:27;;;;;;;24.73;11.77;;;6.20;99.90;;;;;;5013434;28;20477;-60
2022/12/05 00:36:55;;;;;;;20.27;11.00;;;6.20;99.90;;;;;;5012776;28;21012;-61
2022/12/05 00:39:22;;;;;;;28.17;13.13;;;6.20;99.90;;;;;;5014474;28;20857;-60
2022/12/05 00:41:48;;;;;;;16.80;9.47;;;6.10;99.90;;;;;;5032215;28;21471;-60
2022/12/05 00:44:15;;;;;;;29.90;15.07;;;6.10;99.90;;;;;;5011802;28;20485;-60
2022/12/05 00:46:42;;;;;;;24.70;11.57;;;6.20;99.90;;;;;;5009206;28;20485;-60
2022/12/05 00:49:11;;;;;;;20.03;10.83;;;6.10;99.90;;;;;;5017908;28;20507;-61
2022/12/05 00:51:41;;;;;;;15.57;8.83;;;6.20;99.90;;;;;;5018024;28;20492;-60
2022/12/05 00:54:11;;;;;;;26.47;12.23;;;6.20;99.90;;;;;;5009692;28;20770;-61
2022/12/05 00:56:38;;;;;;;17.50;9.53;;;6.20;99.90;;;;;;5010708;28;20587;-60
2022/12/05 00:59:06;;;;;;;17.10;10.40;;;6.20;99.90;;;;;;5020657;28;21023;-60
2022/12/05 01:01:35;;;;;;;29.17;15.37;;;6.30;99.90;;;;;;5011271;28;20485;-60
2022/12/05 01:04:05;;;;;;;22.93;13.33;;;6.30;99.90;;;;;;5018879;28;20481;-60
2022/12/05 01:06:32;;;;;;;23.03;12.47;;;6.30;99.90;;;;;;5025275;28;20576;-60
2022/12/05 01:08:59;;;;;;;19.33;10.53;;;6.20;99.90;;;;;;5030224;28;21400;-60
2022/12/05 01:11:27;;;;;;;23.00;12.87;;;6.20;99.90;;;;;;5025682;28;20915;-61
2022/12/05 01:13:55;;;;;;;25.67;10.83;;;6.20;99.90;;;;;;5035523;28;20499;-61
2022/12/05 01:16:25;;;;;;;25.03;13.63;;;6.30;99.90;;;;;;5031523;28;20880;-60
2022/12/05 01:18:52;;;;;;;19.40;10.50;;;6.30;99.90;;;;;;5032177;28;20488;-59
2022/12/05 01:21:19;;;;;;;32.73;15.33;;;6.30;99.90;;;;;;5029209;28;20484;-60
2022/12/05 01:23:46;;;;;;;17.30;9.83;;;6.30;99.90;;;;;;5030029;28;20482;-60
2022/12/05 01:26:14;;;;;;;30.27;14.63;;;6.20;99.90;;;;;;5023701;28;20841;-59
2022/12/05 01:28:42;;;;;;;30.60;10.77;;;6.30;99.90;;;;;;5006625;28;20500;-59
2022/12/05 01:31:17;;;;;;;21.30;11.57;;;6.30;99.90;;;;;;5023106;28;20530;-60
2022/12/05 01:33:43;;;;;;;19.97;10.50;;;6.20;99.90;;;;;;5025210;28;20492;-59
2022/12/05 01:36:11;;;;;;;23.60;12.87;;;6.20;99.90;;;;;;5034003;28;21020;-59
2022/12/05 01:38:38;;;;;;;18.50;9.30;;;6.20;99.90;;;;;;5034798;28;20562;-59
2022/12/05 01:41:08;;;;;;;16.40;9.80;;;6.30;99.90;;;;;;5035719;28;20479;-59
2022/12/05 01:43:55;;;;;;;16.77;8.33;;;6.20;99.90;;;;;;5035865;28;20931;-59
2022/12/05 01:46:22;;;;;;;22.83;11.90;;;6.10;99.90;;;;;;5026096;28;20480;-59
2022/12/05 01:48:50;;;;;;;17.33;9.70;;;6.10;99.90;;;;;;5014220;28;20608;-59
2022/12/05 01:51:17;;;;;;;28.73;13.87;;;6.10;99.90;;;;;;5046610;28;21335;-60
2022/12/05 01:53:44;;;;;;;20.13;10.20;;;6.10;99.90;;;;;;5034500;28;20759;-59
2022/12/05 01:56:12;;;;;;;24.37;13.17;;;6.10;99.90;;;;;;5007234;28;20476;-59
2022/12/05 01:58:41;;;;;;;17.00;10.00;;;6.10;99.90;;;;;;5022966;28;20807;-59
2022/12/05 02:01:11;;;;;;;24.20;10.30;;;6.20;99.90;;;;;;5030848;28;20480;-59
2022/12/05 02:03:38;;;;;;;18.03;9.67;;;6.20;99.90;;;;;;5034910;28;20472;-59
2022/12/05 02:06:05;;;;;;;22.40;11.17;;;6.20;99.90;;;;;;5024973;28;21193;-59
2022/12/05 02:08:32;;;;;;;20.77;9.57;;;6.20;99.90;;;;;;5030761;28;21195;-59
2022/12/05 02:10:59;;;;;;;21.30;9.13;;;6.20;99.90;;;;;;5031264;28;20484;-59
2022/12/05 02:13:50;;;;;;;15.57;9.17;;;6.30;99.90;;;;;;5024907;28;20488;-59
2022/12/05 02:16:29;;;;;;;24.00;13.50;;;6.20;99.90;;;;;;5034475;28;20476;-60
2022/12/05 02:19:04;;;;;;;23.00;11.43;;;6.20;99.90;;;;;;5011152;28;20480;-60
2022/12/05 02:22:05;;;;;;;22.13;8.60;;;6.20;99.90;;;;;;5013523;28;20488;-59
2022/12/05 02:25:13;;;;;;;21.90;11.50;;;6.20;99.90;;;;;;5012680;28;20468;-59
2022/12/05 02:28:07;;;;;;;18.10;9.30;;;6.20;99.90;;;;;;5015815;28;20926;-59
2022/12/05 02:30:39;;;;;;;16.17;9.23;;;6.20;99.90;;;;;;5024892;28;20491;-59
2022/12/05 02:33:15;;;;;;;19.50;9.53;;;6.20;99.90;;;;;;5017707;28;20492;-59
2022/12/05 02:35:51;;;;;;;15.80;9.30;;;6.20;99.90;;;;;;5016669;28;20491;-60
2022/12/05 02:38:26;;;;;;;35.67;15.67;;;6.20;99.90;;;;;;5029043;28;20809;-60
2022/12/05 02:41:03;;;;;;;20.20;10.90;;;6.20;99.90;;;;;;5016320;28;20487;-60
2022/12/05 02:43:34;;;;;;;18.43;10.43;;;6.10;99.90;;;;;;5025690;28;20468;-60
2022/12/05 02:46:08;;;;;;;24.23;12.57;;;6.10;99.90;;;;;;5031934;28;20488;-60
2022/12/05 02:48:37;;;;;;;22.77;8.00;;;5.90;99.90;;;;;;5031047;28;20561;-60
2022/12/05 02:51:05;;;;;;;26.20;11.63;;;5.90;99.90;;;;;;5030395;28;21056;-60
2022/12/05 02:53:32;;;;;;;20.23;10.13;;;5.70;99.90;;;;;;5018509;28;20480;-59
2022/12/05 02:56:00;;;;;;;28.70;11.70;;;5.50;99.90;;;;;;5029643;28;21406;-60
2022/12/05 02:58:33;;;;;;;26.10;12.43;;;5.40;99.90;;;;;;5019991;28;20560;-60
2022/12/05 03:01:02;;;;;;;30.03;13.83;;;5.20;99.90;;;;;;5018210;28;20472;-59
2022/12/05 03:03:30;;;;;;;28.30;12.37;;;5.00;99.90;;;;;;5006093;28;20559;-60
2022/12/05 03:06:02;;;;;;;34.77;16.90;;;4.90;99.90;;;;;;5027013;28;20472;-60
2022/12/05 03:08:34;;;;;;;29.80;11.67;;;4.90;99.90;;;;;;5026799;28;20951;-59
2022/12/05 03:11:03;;;;;;;31.33;12.80;;;4.80;99.90;;;;;;5012175;28;20499;-60
2022/12/05 03:13:38;;;;;;;33.80;13.73;;;4.80;99.90;;;;;;5017229;28;20484;-60
2022/12/05 03:16:12;;;;;;;29.30;13.60;;;4.70;99.90;;;;;;5009001;28;20480;-59
2022/12/05 03:18:44;;;;;;;25.23;12.93;;;4.70;99.90;;;;;;5010200;28;20477;-59
2022/12/05 03:21:19;;;;;;;30.67;12.87;;;4.80;99.90;;;;;;5017450;28;20856;-59
2022/12/05 03:23:51;;;;;;;31.70;12.37;;;4.80;99.90;;;;;;5014542;28;20520;-59
2022/12/05 03:26:28;;;;;;;53.37;15.13;;;4.90;99.90;;;;;;5011374;28;20959;-59
2022/12/05 03:29:03;;;;;;;25.40;12.40;;;4.90;99.90;;;;;;5014614;28;20472;-60
2022/12/05 03:31:39;;;;;;;24.37;11.40;;;4.90;99.90;;;;;;5010512;28;20487;-60
2022/12/05 03:34:12;;;;;;;28.63;12.03;;;4.90;99.90;;;;;;5001984;28;21012;-59
2022/12/05 03:36:44;;;;;;;28.40;13.33;;;5.00;99.90;;;;;;5008133;28;21215;-59
2022/12/05 03:39:18;;;;;;;39.77;14.77;;;5.00;99.90;;;;;;5024649;28;20484;-60
2022/12/05 03:41:54;;;;;;;32.60;12.50;;;5.10;99.90;;;;;;5014168;28;20481;-59
2022/12/05 03:44:24;;;;;;;33.70;16.20;;;5.20;99.90;;;;;;5013806;28;20489;-59
2022/12/05 03:46:56;;;;;;;25.83;10.70;;;5.30;99.90;;;;;;5017338;28;20489;-59
2022/12/05 03:49:30;;;;;;;24.37;12.17;;;5.50;99.90;;;;;;5031368;28;20507;-59
2022/12/05 03:52:04;;;;;;;23.07;11.77;;;5.60;99.90;;;;;;5027350;28;20479;-59
2022/12/05 03:54:36;;;;;;;28.27;11.57;;;5.70;99.90;;;;;;5027131;28;20566;-60
2022/12/05 03:57:08;;;;;;;24.70;11.47;;;5.80;99.90;;;;;;5027988;28;20812;-59
2022/12/05 03:59:41;;;;;;;31.70;11.60;;;5.90;99.90;;;;;;5028735;28;20470;-59
2022/12/05 04:02:13;;;;;;;26.43;11.97;;;5.80;99.90;;;;;;5023100;28;20840;-59
2022/12/05 04:04:47;;;;;;;25.17;11.73;;;5.80;99.90;;;;;;5020439;28;20566;-59
2022/12/05 04:07:17;;;;;;;27.73;12.23;;;5.70;99.90;;;;;;5038239;28;20491;-59
2022/12/05 04:09:46;;;;;;;20.90;10.00;;;5.80;99.90;;;;;;5025737;28;20476;-59
2022/12/05 04:12:21;;;;;;;36.00;16.30;;;5.90;99.90;;;;;;5033914;28;20472;-59
2022/12/05 04:14:52;;;;;;;22.00;11.73;;;5.90;99.90;;;;;;5036941;28;20480;-59
2022/12/05 04:17:26;;;;;;;33.67;16.90;;;6.00;99.90;;;;;;5025858;28;20472;-59
2022/12/05 04:22:41;;;;;;;22.50;10.70;;;6.20;99.90;;;;;;5022949;28;20836;-59
2022/12/05 04:27:59;;;;;;;23.07;11.50;;;6.10;99.90;;;;;;5023812;28;20491;-60
2022/12/05 04:30:31;;;;;;;36.07;13.40;;;5.90;99.90;;;;;;5018645;28;20481;-60
2022/12/05 04:33:05;;;;;;;28.93;12.50;;;5.70;99.90;;;;;;5025568;28;20489;-59
2022/12/05 04:35:35;;;;;;;22.33;10.10;;;5.90;99.90;;;;;;5033151;28;21263;-59
2022/12/05 04:38:07;;;;;;;30.77;12.03;;;5.90;99.90;;;;;;5033361;28;20483;-59
2022/12/05 04:40:38;;;;;;;30.00;13.30;;;5.90;99.90;;;;;;5033821;28;20468;-59
2022/12/05 04:43:06;;;;;;;32.47;12.10;;;5.80;99.90;;;;;;5035616;28;21003;-60
2022/12/05 04:45:35;;;;;;;25.70;11.37;;;5.70;99.90;;;;;;5035642;28;20718;-60
2022/12/05 04:48:09;;;;;;;25.97;11.97;;;5.70;99.90;;;;;;5035629;28;20481;-59
2022/12/05 04:50:38;;;;;;;29.87;12.03;;;5.70;99.90;;;;;;5037516;28;20525;-59
2022/12/05 04:53:06;;;;;;;27.13;12.07;;;5.70;99.90;;;;;;5032657;28;20487;-59
2022/12/05 04:55:36;;;;;;;18.67;9.73;;;5.20;99.90;;;;;;5036629;28;20949;-59
2022/12/05 04:58:09;;;;;;;31.30;13.47;;;6.00;99.90;;;;;;5034394;28;20484;-60
2022/12/05 05:00:38;;;;;;;35.83;15.00;;;;;;;;;;5033328;28;20854;-60
2022/12/05 05:03:12;;;;;;;27.07;11.97;;;5.90;99.90;;;;;;5036123;28;20886;-60
2022/12/05 05:05:40;;;;;;;27.20;11.20;;;5.80;99.90;;;;;;5036736;28;20481;-59
2022/12/05 05:08:16;;;;;;;26.23;11.40;;;5.70;99.90;;;;;;5030370;28;20476;-60
2022/12/05 05:10:50;;;;;;;27.57;11.40;;;5.70;99.90;;;;;;5032340;28;21063;-60
2022/12/05 05:13:17;;;;;;;45.57;16.53;;;5.60;99.90;;;;;;5016823;28;20468;-59
2022/12/05 05:15:43;;;;;;;27.90;12.60;;;5.70;99.90;;;;;;5005709;28;20485;-59
2022/12/05 05:18:12;;;;;;;27.17;11.80;;;5.80;99.90;;;;;;5009938;28;20524;-60
2022/12/05 05:20:39;;;;;;;26.17;11.13;;;5.70;99.90;;;;;;5014722;28;20496;-59
2022/12/05 05:23:05;;;;;;;29.50;12.80;;;5.70;99.90;;;;;;5022438;28;21125;-59
2022/12/05 05:25:32;;;;;;;16.90;9.90;;;5.60;99.90;;;;;;5013492;28;20473;-60
2022/12/05 05:27:59;;;;;;;35.33;13.90;;;5.60;99.90;;;;;;5033656;28;20516;-60
2022/12/05 05:30:26;;;;;;;30.83;14.50;;;5.70;99.90;;;;;;5030257;28;20488;-60
2022/12/05 05:32:53;;;;;;;33.10;14.40;;;5.70;99.90;;;;;;5034976;28;20495;-59
2022/12/05 05:35:21;;;;;;;39.50;16.10;;;5.70;99.90;;;;;;5035358;28;20507;-59
2022/12/05 05:37:48;;;;;;;26.00;12.77;;;5.60;99.90;;;;;;5034618;28;20834;-60
2022/12/05 05:40:15;;;;;;;48.23;19.87;;;5.60;99.90;;;;;;5035630;28;20483;-59
2022/12/05 05:42:44;;;;;;;31.93;13.57;;;5.50;99.90;;;;;;5036046;28;20487;-59
2022/12/05 05:45:11;;;;;;;37.90;15.90;;;5.40;99.90;;;;;;5035534;28;20496;-59
2022/12/05 05:47:38;;;;;;;23.53;12.37;;;5.40;99.90;;;;;;5033298;28;20487;-59
2022/12/05 05:50:07;;;;;;;46.27;13.73;;;5.40;99.90;;;;;;5035530;28;20570;-59
2022/12/05 05:52:36;;;;;;;30.33;13.60;;;5.40;99.90;;;;;;5028341;28;20719;-59
2022/12/05 05:55:04;;;;;;;23.67;11.80;;;5.40;99.90;;;;;;5033612;28;20484;-59
2022/12/05 05:57:31;;;;;;;35.03;14.93;;;5.20;99.90;;;;;;5024078;28;20496;-59
2022/12/05 05:59:58;;;;;;;27.57;13.20;;;5.20;99.90;;;;;;5036382;28;20916;-59
2022/12/05 06:02:25;;;;;;;41.13;16.80;;;5.10;99.90;;;;;;5033412;28;20488;-60
2022/12/05 06:04:51;;;;;;;34.67;13.07;;;5.20;99.90;;;;;;5034456;28;20492;-59
2022/12/05 06:07:18;;;;;;;48.83;19.43;;;5.20;99.90;;;;;;5033541;28;20507;-59
2022/12/05 06:09:46;;;;;;;33.13;13.20;;;5.20;99.90;;;;;;5035269;28;20490;-59
2022/12/05 06:12:13;;;;;;;35.10;15.40;;;5.20;99.90;;;;;;5035333;28;20472;-59
2022/12/05 06:14:40;;;;;;;28.93;13.47;;;5.10;99.90;;;;;;5035032;28;20846;-59
2022/12/05 06:17:06;;;;;;;32.77;13.57;;;5.30;99.90;;;;;;5032258;28;20487;-59
2022/12/05 06:19:33;;;;;;;29.23;12.13;;;5.30;99.90;;;;;;5032874;28;21000;-60
2022/12/05 06:22:00;;;;;;;25.47;10.10;;;5.30;99.90;;;;;;5035002;28;20481;-59
2022/12/05 06:24:27;;;;;;;35.17;15.00;;;5.30;99.90;;;;;;5034694;28;20491;-60
2022/12/05 06:26:55;;;;;;;43.90;14.13;;;5.30;99.90;;;;;;5027648;28;20487;-60
2022/12/05 06:29:21;;;;;;;49.60;18.40;;;5.30;99.90;;;;;;5028358;28;20494;-60
2022/12/05 06:31:48;;;;;;;40.50;16.90;;;5.30;99.90;;;;;;5034534;28;20476;-60
2022/12/05 06:34:15;;;;;;;40.93;16.50;;;5.30;99.90;;;;;;5024841;28;20481;-60
2022/12/05 06:36:41;;;;;;;28.93;11.27;;;5.20;99.90;;;;;;5032421;28;20538;-60
2022/12/05 06:39:08;;;;;;;47.40;18.47;;;5.20;99.90;;;;;;5035716;28;20685;-61
2022/12/05 06:41:35;;;;;;;45.60;14.37;;;5.20;99.90;;;;;;5034659;28;20583;-60
2022/12/05 06:44:03;;;;;;;38.57;16.57;;;5.20;99.90;;;;;;5034559;28;20489;-60
2022/12/05 06:46:30;;;;;;;37.00;14.27;;;5.20;99.90;;;;;;5033582;28;20960;-60
2022/12/05 06:48:58;;;;;;;36.97;14.57;;;5.20;99.90;;;;;;5024751;28;21208;-60
2022/12/05 06:51:25;;;;;;;65.23;23.17;;;5.20;99.90;;;;;;5049100;28;20484;-60
2022/12/05 06:53:52;;;;;;;59.37;20.53;;;5.20;99.90;;;;;;5023445;28;20460;-60
2022/12/05 06:56:20;;;;;;;55.97;22.10;;;5.20;99.90;;;;;;5033704;28;20838;-60
2022/12/05 06:58:51;;;;;;;44.53;17.20;;;5.20;99.90;;;;;;5034450;28;20882;-60
2022/12/05 07:01:37;;;;;;;65.03;23.13;;;5.30;99.90;;;;;;5034433;28;20515;-60
2022/12/05 07:04:06;;;;;;;24.33;10.73;;;5.30;99.90;;;;;;5017389;28;20477;-60
2022/12/05 07:06:34;;;;;;;27.17;11.33;;;5.30;99.90;;;;;;5025563;28;20943;-60
2022/12/05 07:09:01;;;;;;;23.80;8.40;;;5.30;99.90;;;;;;5031976;28;20803;-60
2022/12/05 07:11:28;;;;;;;45.53;16.83;;;5.30;99.90;;;;;;5033894;28;21103;-61
2022/12/05 07:13:55;;;;;;;31.60;12.80;;;5.20;99.90;;;;;;5035193;28;20484;-60
2022/12/05 07:16:24;;;;;;;51.33;19.53;;;5.30;99.90;;;;;;5020930;28;20484;-60
2022/12/05 07:18:51;;;;;;;59.73;22.80;;;5.30;99.90;;;;;;5039615;28;20491;-60
2022/12/05 07:21:20;;;;;;;86.13;27.83;;;5.20;99.90;;;;;;5022072;28;20480;-60
2022/12/05 07:23:48;;;;;;;46.67;17.90;;;5.20;99.90;;;;;;5035110;28;20476;-60
2022/12/05 07:26:18;;;;;;;64.63;19.23;;;5.30;99.90;;;;;;5030199;28;20440;-60
2022/12/05 07:28:45;;;;;;;54.63;16.80;;;5.30;99.90;;;;;;5037112;28;20480;-60
2022/12/05 07:31:13;;;;;;;71.47;23.80;;;5.30;99.90;;;;;;5038280;28;20480;-60
2022/12/05 07:33:41;;;;;;;37.03;14.77;;;5.30;99.90;;;;;;5038417;28;20870;-60
2022/12/05 07:36:10;;;;;;;72.73;17.37;;;5.50;99.90;;;;;;5036102;28;20862;-60
2022/12/05 07:38:38;;;;;;;37.90;13.40;;;5.50;99.90;;;;;;5037041;28;20484;-60
2022/12/05 07:41:05;;;;;;;38.07;14.87;;;5.60;99.90;;;;;;5036917;28;20484;-60
2022/12/05 07:43:32;;;;;;;63.83;22.07;;;5.50;99.90;;;;;;5038075;28;20595;-59
2022/12/05 07:46:02;;;;;;;35.00;10.80;;;5.50;99.90;;;;;;5028710;28;20497;-59
2022/12/05 07:48:28;;;;;;;46.17;17.30;;;5.50;99.90;;;;;;5032084;28;20481;-59
2022/12/05 07:50:59;;;;;;;52.13;15.60;;;5.50;99.90;;;;;;5011531;28;20481;-59
2022/12/05 07:53:26;;;;;;;74.67;26.97;;;5.50;99.90;;;;;;5010310;28;20488;-59
2022/12/05 07:55:52;;;;;;;47.43;18.80;;;5.50;99.90;;;;;;5025723;28;20476;-59
2022/12/05 07:58:19;;;;;;;49.33;18.10;;;5.50;99.90;;;;;;5033083;28;20491;-59
2022/12/05 08:00:46;;;;;;;49.60;18.67;;;5.50;99.90;;;;;;5037706;28;20503;-59
2022/12/05 08:03:12;;;;;;;83.60;26.63;;;5.50;99.90;;;;;;5037286;28;20838;-60
2022/12/05 08:05:39;;;;;;;48.67;15.03;;;5.50;99.90;;;;;;5037974;28;20499;-60
2022/12/05 08:08:07;;;;;;;47.93;18.80;;;5.60;99.90;;;;;;5037150;28;20488;-59
2022/12/05 08:10:35;;;;;;;39.63;14.00;;;5.60;99.90;;;;;;5039280;28;20475;-60
2022/12/05 08:13:01;;;;;;;46.80;17.80;;;5.60;99.90;;;;;;5037321;28;20559;-60
2022/12/05 08:15:28;;;;;;;62.63;22.00;;;5.60;99.90;;;;;;5021112;28;20483;-60
2022/12/05 08:17:55;;;;;;;53.10;19.50;;;5.60;99.90;;;;;;5030433;28;20833;-61
2022/12/05 08:20:21;;;;;;;50.23;16.50;;;5.60;99.90;;;;;;5026031;28;20481;-59
2022/12/05 08:22:52;;;;;;;44.97;15.60;;;5.60;99.90;;;;;;5018427;28;20508;-60
2022/12/05 08:25:20;;;;;;;77.50;23.03;;;5.60;99.90;;;;;;5007331;28;21412;-60
2022/12/05 08:27:47;;;;;;;56.50;18.50;;;5.60;99.90;;;;;;5013857;28;20492;-60
2022/12/05 08:30:14;;;;;;;58.93;20.30;;;5.60;99.90;;;;;;5026874;28;20849;-60
2022/12/05 08:32:40;;;;;;;44.87;16.17;;;5.60;99.90;;;;;;5017676;28;20900;-60
2022/12/05 08:35:08;;;;;;;36.60;13.87;;;5.60;99.90;;;;;;5018697;28;20476;-60
2022/12/05 08:37:35;;;;;;;38.30;16.27;;;5.70;99.90;;;;;;5019498;28;20484;-60
2022/12/05 08:40:01;;;;;;;29.10;11.37;;;5.80;99.90;;;;;;5020477;28;20476;-60
2022/12/05 08:42:30;;;;;;;40.33;16.13;;;5.80;99.90;;;;;;5025030;28;20480;-60
2022/12/05 08:44:56;;;;;;;57.00;18.60;;;5.80;99.90;;;;;;5015839;28;20477;-60
2022/12/05 08:47:23;;;;;;;54.83;18.60;;;5.80;99.90;;;;;;5010946;28;20496;-60
2022/12/05 08:49:50;;;;;;;56.30;18.63;;;5.70;99.90;;;;;;5011443;28;20473;-60
2022/12/05 08:52:17;;;;;;;52.40;13.40;;;5.80;99.90;;;;;;5013703;28;20481;-60
2022/12/05 08:54:43;;;;;;;51.27;17.57;;;5.90;99.90;;;;;;5017242;28;20477;-60
2022/12/05 08:57:10;;;;;;;71.40;19.47;;;5.90;99.90;;;;;;5016629;28;20892;-60
2022/12/05 08:59:38;;;;;;;51.07;16.80;;;6.00;99.90;;;;;;5010248;28;20480;-59
2022/12/05 09:02:05;;;;;;;41.57;12.97;;;6.00;99.90;;;;;;5015493;28;20480;-59
2022/12/05 09:04:32;;;;;;;35.37;12.30;;;6.00;99.90;;;;;;5031031;28;20504;-60
2022/12/05 09:07:01;;;;;;;35.30;11.83;;;6.00;99.90;;;;;;5019519;28;20496;-60
2022/12/05 09:09:28;;;;;;;29.50;12.70;;;6.10;99.90;;;;;;5032156;28;20571;-60
2022/12/05 09:11:56;;;;;;;38.50;15.67;;;5.90;99.90;;;;;;5017814;28;20576;-60
2022/12/05 09:14:24;;;;;;;44.10;14.37;;;6.00;99.90;;;;;;4998699;28;20922;-60
2022/12/05 09:16:52;;;;;;;38.87;13.20;;;6.10;99.90;;;;;;5040674;28;20470;-60
2022/12/05 09:19:22;;;;;;;60.20;20.53;;;6.10;99.90;;;;;;5012170;28;20782;-60
2022/12/05 09:21:49;;;;;;;23.80;10.03;;;6.10;99.90;;;;;;5013446;28;20485;-60
2022/12/05 09:24:15;;;;;;;65.33;21.03;;;6.00;99.90;;;;;;5011043;28;20512;-60
2022/12/05 09:26:42;;;;;;;41.40;15.80;;;5.90;99.90;;;;;;5010558;28;20678;-60
2022/12/05 09:29:09;;;;;;;42.77;14.63;;;6.00;99.90;;;;;;5012941;28;20987;-60
2022/12/05 09:31:36;;;;;;;38.13;14.93;;;6.00;99.90;;;;;;5016902;28;20883;-60
2022/12/05 09:34:05;;;;;;;42.87;16.53;;;5.90;99.90;;;;;;5011985;28;20944;-60
2022/12/05 09:36:32;;;;;;;37.37;14.43;;;5.90;99.90;;;;;;5015366;28;21196;-60
2022/12/05 09:39:01;;;;;;;45.13;15.63;;;5.90;99.90;;;;;;5028218;28;20484;-60
2022/12/05 09:42:06;;;;;;;51.17;13.93;;;5.90;99.90;;;;;;5018361;28;20481;-59
2022/12/05 09:44:43;;;;;;;45.93;15.77;;;5.90;99.90;;;;;;4989260;28;20476;-60
2022/12/05 09:47:20;;;;;;;40.70;13.83;;;5.90;99.90;;;;;;5023098;28;20502;-59
2022/12/05 09:49:52;;;;;;;35.50;11.97;;;6.00;99.90;;;;;;5014327;28;20527;-60
2022/12/05 09:52:25;;;;;;;61.37;18.17;;;6.10;99.90;;;;;;5026836;28;20813;-60
2022/12/05 09:54:52;;;;;;;37.47;16.47;;;6.20;99.90;;;;;;5016281;28;20485;-60
2022/12/05 09:57:33;;;;;;;60.00;18.03;;;6.10;99.90;;;;;;5018888;28;20512;-60
2022/12/05 10:00:03;;;;;;;38.07;13.67;;;6.20;99.90;;;;;;5030899;28;20527;-59
2022/12/05 10:02:42;;;;;;;38.93;14.43;;;6.30;99.90;;;;;;5021575;28;20499;-60
2022/12/05 10:05:16;;;;;;;46.60;13.47;;;6.30;99.90;;;;;;5022799;28;20480;-59
2022/12/05 10:07:51;;;;;;;34.70;13.80;;;6.40;99.90;;;;;;5005250;28;21218;-59
2022/12/05 10:10:27;;;;;;;38.00;14.30;;;6.30;99.90;;;;;;5028608;28;20479;-59
2022/12/05 10:13:20;;;;;;;38.53;15.87;;;7.20;99.90;;;;;;5023602;28;20481;-60
2022/12/05 10:15:50;;;;;;;40.47;14.30;;;6.20;99.90;;;;;;5018127;28;20476;-59
2022/12/05 10:18:27;;;;;;;62.37;16.87;;;6.30;99.90;;;;;;5032024;28;20485;-60
2022/12/05 10:21:00;;;;;;;48.30;14.13;;;6.30;99.90;;;;;;5031372;28;21090;-60
2022/12/05 10:23:31;;;;;;;42.30;12.10;;;6.40;99.90;;;;;;5031881;28;20868;-60
2022/12/05 10:26:02;;;;;;;58.20;15.93;;;6.40;99.90;;;;;;5030725;28;20476;-60
2022/12/05 10:28:33;;;;;;;36.33;12.17;;;6.40;99.90;;;;;;5030480;28;20877;-60
2022/12/05 10:31:05;;;;;;;18.87;8.43;;;6.40;99.90;;;;;;5033096;28;20476;-59
2022/12/05 10:33:38;;;;;;;27.73;10.10;;;6.40;99.90;;;;;;5029595;28;20480;-60
2022/12/05 10:36:12;;;;;;;18.30;9.70;;;6.30;99.90;;;;;;5026195;28;21112;-60
2022/12/05 10:38:39;;;;;;;21.07;9.50;;;6.20;99.90;;;;;;5025537;28;20489;-60
2022/12/05 10:41:09;;;;;;;19.50;5.77;;;6.10;99.90;;;;;;5050032;28;21257;-59
2022/12/05 10:43:37;;;;;;;15.17;8.00;;;6.10;99.90;;;;;;5027505;28;20476;-59
2022/12/05 10:46:05;;;;;;;23.60;9.67;;;6.20;99.90;;;;;;5037171;28;20567;-59
2022/12/05 10:48:36;;;;;;;23.60;10.33;;;6.20;99.90;;;;;;5052314;28;20472;-60
2022/12/05 10:51:03;;;;;;;21.17;9.03;;;6.10;99.90;;;;;;5034452;28;20826;-60
2022/12/05 10:53:41;;;;;;;22.23;10.47;;;6.20;99.90;;;;;;5035020;28;20480;-60
2022/12/05 10:56:36;;;;;;;20.20;10.67;;;6.10;99.90;;;;;;5031255;28;20479;-59
2022/12/05 10:59:04;;;;;;;10.77;5.63;;;6.10;99.90;;;;;;5019957;28;21162;-59
2022/12/05 11:01:31;;;;;;;18.13;8.60;;;6.20;99.90;;;;;;5013193;28;20477;-60
2022/12/05 11:04:00;;;;;;;22.73;10.00;;;6.30;99.90;;;;;;5018981;28;20488;-60
2022/12/05 11:06:29;;;;;;;21.17;9.77;;;6.30;99.90;;;;;;5023749;28;20573;-59
2022/12/05 11:08:59;;;;;;;20.67;9.20;;;6.30;99.90;;;;;;5027951;28;20818;-60
2022/12/05 11:11:27;;;;;;;23.40;9.60;;;6.20;99.90;;;;;;5028290;28;21017;-60
2022/12/05 11:13:56;;;;;;;18.70;9.43;;;6.20;99.90;;;;;;5018965;28;20584;-60
2022/12/05 11:16:25;;;;;;;22.00;9.17;;;6.20;99.90;;;;;;5025577;28;20483;-59
2022/12/05 11:18:52;;;;;;;19.97;8.17;;;6.30;99.90;;;;;;5017562;28;20489;-60
2022/12/05 11:21:19;;;;;;;27.43;12.53;;;6.30;99.90;;;;;;5015017;28;20481;-60
2022/12/05 11:23:46;;;;;;;15.97;8.53;;;6.20;99.90;;;;;;5015418;28;20485;-60
2022/12/05 11:26:35;;;;;;;34.67;11.57;;;6.10;99.90;;;;;;5019610;28;21475;-60
2022/12/05 11:29:01;;;;;;;15.50;7.63;;;6.10;99.90;;;;;;5022380;28;20526;-60
2022/12/05 11:31:30;;;;;;;19.93;7.80;;;5.90;99.90;;;;;;5022172;28;20477;-60
2022/12/05 11:34:04;;;;;;;17.87;8.17;;;5.90;99.90;;;;;;5016821;28;20480;-60
2022/12/05 11:36:39;;;;;;;17.07;7.33;;;5.70;99.90;;;;;;5020972;28;20476;-60
2022/12/05 11:39:06;;;;;;;16.07;7.73;;;5.80;99.90;;;;;;5018288;28;21197;-59
2022/12/05 11:41:48;;;;;;;22.50;8.73;;;5.90;99.90;;;;;;5017732;28;20477;-60
2022/12/05 11:44:28;;;;;;;35.17;14.17;;;5.80;99.90;;;;;;5021507;28;20469;-60
2022/12/05 11:47:06;;;;;;;20.77;9.40;;;5.80;99.90;;;;;;5022299;28;20476;-60
2022/12/05 11:49:56;;;;;;;16.13;7.97;;;5.90;99.90;;;;;;5014799;28;20472;-60
2022/12/05 11:52:34;;;;;;;26.33;10.40;;;5.80;99.90;;;;;;5023819;28;20484;-59
2022/12/05 11:55:12;;;;;;;17.93;8.30;;;5.80;99.90;;;;;;5034812;28;20519;-60
2022/12/05 11:57:59;;;;;;;23.40;7.03;;;5.90;99.90;;;;;;5032685;28;20484;-59
2022/12/05 12:00:33;;;;;;;25.87;10.03;;;5.80;99.90;;;;;;5012444;28;20500;-59
2022/12/05 12:03:20;;;;;;;18.40;6.07;;;5.70;99.90;;;;;;5016792;28;20828;-60
2022/12/05 12:05:59;;;;;;;23.10;9.20;;;5.60;99.90;;;;;;5005145;28;20487;-60
2022/12/05 12:08:28;;;;;;;20.97;8.70;;;5.60;99.90;;;;;;5014985;28;20471;-61
2022/12/05 12:11:06;;;;;;;19.93;8.50;;;5.60;99.90;;;;;;5025529;28;20476;-60
2022/12/05 12:13:54;;;;;;;14.60;6.43;;;5.70;99.90;;;;;;5015127;28;21670;-60
2022/12/05 12:16:33;;;;;;;20.60;8.47;;;5.80;99.90;;;;;;4994218;28;20486;-60
2022/12/05 12:19:25;;;;;;;14.53;7.07;;;5.80;99.90;;;;;;5027974;28;20491;-60
2022/12/05 12:22:13;;;;;;;20.13;6.30;;;5.80;99.90;;;;;;5001123;28;20503;-60
2022/12/05 12:24:57;;;;;;;20.40;8.20;;;5.70;99.90;;;;;;5019391;28;20574;-61
2022/12/05 12:27:37;;;;;;;33.67;12.00;;;5.60;99.90;;;;;;5013600;28;21036;-60
2022/12/05 12:30:12;;;;;;;21.33;8.10;;;5.70;99.90;;;;;;5032437;28;20538;-60
2022/12/05 12:32:50;;;;;;;14.00;7.10;;;5.70;99.90;;;;;;5011592;28;20926;-60
2022/12/05 12:35:29;;;;;;;33.23;11.90;;;5.70;99.90;;;;;;5008531;28;20504;-60
2022/12/05 12:38:18;;;;;;;19.60;7.67;;;5.70;99.90;;;;;;4999897;28;20499;-59
2022/12/05 12:40:52;;;;;;;17.17;6.00;;;5.70;99.90;;;;;;5009493;28;20507;-59
2022/12/05 12:43:35;;;;;;;28.80;10.83;;;5.60;99.90;;;;;;5006784;28;20493;-60
2022/12/05 12:46:25;;;;;;;22.03;7.50;;;5.70;99.90;;;;;;5010759;28;20485;-60
2022/12/05 12:49:04;;;;;;;18.10;7.47;;;5.90;99.90;;;;;;5014384;28;20968;-59
2022/12/05 12:51:32;;;;;;;23.10;8.73;;;6.00;99.90;;;;;;4993876;28;20469;-60
2022/12/05 12:54:20;;;;;;;18.63;7.70;;;6.00;99.90;;;;;;5011163;28;20525;-60
2022/12/05 12:56:57;;;;;;;24.07;8.77;;;6.10;99.90;;;;;;5015321;28;20485;-60
2022/12/05 12:59:50;;;;;;;27.17;9.70;;;6.20;99.90;;;;;;5015734;28;20477;-60
2022/12/05 13:02:23;;;;;;;29.23;9.60;;;5.90;99.90;;;;;;5015710;28;20473;-60
2022/12/05 13:04:55;;;;;;;35.27;7.17;;;6.30;99.90;;;;;;5012198;28;20484;-60